Weather observations for the past three days for
University Airport
Imperial (Metric)
Date Time (pdt) Wind (mph) Vis. (mi.) Weather Sky Cond. Temperature (ºF) Relative Humidity Wind Chill (°F) Heat Index (°F) Pressure Precipitation (in)
Air Dwpt 6 hour altimeter (in) sea level (mb) 1 hr 3 hr 6 hr
Max. Min.
08 06:00 Calm 10.00 NULL NULL 50 50 100% 30.01 0.0
08 05:40 Calm 10.00 NULL NULL 51.8 51.8 100% 30.01 0.0
08 05:20 Calm 10.00 NULL NULL 51.8 51.8 100% 30.01 0.0
08 05:00 Calm 10.00 NULL NULL 51.8 51.8 100% 30 0.0
08 04:40 Calm 10.00 NULL NULL 51.8 51.8 100% 30 0.0
08 04:20 Calm 10.00 NULL NULL 51.8 51.8 100% 29.99 0.0
08 04:00 Calm 10.00 NULL NULL 53.6 53.6 100% 29.99 0.0
08 03:40 Calm 10.00 NULL NULL 51.8 51.8 100% 29.99 0.0
08 03:20 Calm 10.00 NULL NULL 53.6 53.6 100% 29.99 0.0
08 03:00 Calm 10.00 NULL NULL 53.6 53.6 100% 29.99 0.0
08 02:40 Calm 10.00 NULL NULL 53.6 53.6 100% 29.99 0.0
08 02:20 Calm 10.00 NULL NULL 53.6 53.6 100% 29.99 0.0
08 02:00 Calm 10.00 NULL NULL 53.6 53.6 100% 29.99 0.0
08 01:40 Calm 10.00 NULL NULL 55.4 55.4 100% 29.99 0.0
08 01:20 Calm 10.00 NULL NULL 55.4 55.4 100% 29.99 0.0
08 01:00 Calm 10.00 NULL NULL 55.4 55.4 100% 29.99 0.0
08 00:40 Calm 10.00 NULL NULL 55.4 55.4 100% 29.98 0.0
08 00:20 Calm 10.00 NULL NULL 55.4 55.4 100% 29.98 0.0
08 00:00 Calm 10.00 NULL NULL 55.4 55.4 100% 29.98 0.0
07 23:40 Calm 10.00 NULL NULL 57.2 57.2 100% 29.98 0.0
07 23:20 Calm 10.00 NULL NULL 57.2 57.2 100% 29.98 0.0
07 23:00 Calm 10.00 NULL NULL 59 57.2 94% 29.98 0.0
07 22:40 Calm 10.00 NULL NULL 60.8 59 94% 29.98 0.0
07 22:20 Calm 10.00 NULL NULL 60.8 59 94% 29.98 0.0
07 22:00 Calm 10.00 NULL NULL 62.6 59 88% 29.98 0.0
07 21:40 Calm 10.00 NULL NULL 62.6 60.8 94% 29.97 0.0
07 21:20 Calm 10.00 NULL NULL 64.4 60.8 88% 29.97 0.0
07 21:00 Calm 10.00 NULL NULL 64.4 60.8 88% 29.96 0.0
07 20:40 Calm 10.00 NULL NULL 66.2 62.6 88% 29.96 0.0
07 20:20 Calm 10.00 NULL NULL 66.2 62.6 88% 29.95 0.0
07 20:00 Calm 10.00 NULL NULL 69.8 60.8 73% 29.95 0.0
07 19:40 Calm 10.00 NULL NULL 73.4 62.6 69% 29.95 0.0
07 19:20 S 7 10.00 NULL NULL 75.2 64.4 69% 77 29.95 0.0
07 19:00 S 7 10.00 NULL NULL 77 62.6 61% 79 29.95 0.0
07 18:40 S 3 10.00 NULL NULL 78.8 62.6 58% 80 29.95 0.0
07 18:20 S 3 10.00 NULL NULL 80.6 62.6 54% 82 29.95 0.0
07 18:00 S 3 10.00 NULL NULL 80.6 62.6 54% 82 29.96 0.0
07 17:40 S 7 10.00 NULL NULL 80.6 62.6 54% 82 29.96 0.0
07 17:20 S 3 10.00 NULL NULL 82.4 62.6 51% 83 29.96 0.0
07 17:00 SE 5 10.00 NULL NULL 82.4 62.6 51% 83 29.96 0.0
07 16:40 Calm 10.00 NULL NULL 82.4 60.8 48% 83 29.96 0.0
07 16:20 Calm 10.00 NULL NULL 80.6 60.8 51% 81 29.97 0.0
07 16:00 Calm 10.00 NULL NULL 80.6 60.8 51% 81 29.98 0.0
07 15:40 Calm 10.00 NULL NULL 80.6 59 48% 81 29.99 0.0
07 15:20 Calm 10.00 NULL NULL 80.6 60.8 51% 81 30 0.0
07 15:00 Calm 10.00 NULL NULL 80.6 60.8 51% 81 30.01 0.0
07 14:40 Calm 10.00 NULL NULL 77 59 54% 79 30.02 0.0
07 14:20 Calm 10.00 NULL NULL 77 59 54% 79 30.03 0.0
07 14:00 Calm 10.00 NULL NULL 77 60.8 57% 79 30.03 0.0
07 13:40 Calm 10.00 NULL NULL 77 59 54% 79 30.04 0.0
07 13:20 Calm 10.00 NULL NULL 75.2 59 57% 78 30.05 0.0
07 13:00 Calm 10.00 NULL NULL 75.2 60.8 61% 77 30.05 0.0
07 12:40 Calm 10.00 NULL NULL 73.4 59 61% 30.06 0.0
07 12:20 Calm 10.00 NULL NULL 73.4 59 61% 30.07 0.0
07 12:00 Calm 10.00 NULL NULL 71.6 59 65% 30.07 0.0
07 11:40 Calm 10.00 NULL NULL 71.6 60.8 69% 30.08 0.0
07 11:20 NW 3 10.00 NULL NULL 68 59 73% 30.08 0.0
07 11:00 Calm 10.00 NULL NULL 68 59 73% 30.08 0.0
07 10:40 Calm 10.00 NULL NULL 66.2 59 78% 30.09 0.0
07 10:20 Calm 10.00 NULL NULL 66.2 59 78% 30.09 0.0
07 10:00 Calm 10.00 NULL NULL 64.4 59 83% 30.09 0.0
07 09:40 Calm 10.00 NULL NULL 62.6 59 88% 30.09 0.0
07 09:20 Calm 10.00 NULL NULL 62.6 59 88% 30.09 0.0
07 09:00 Calm 10.00 NULL NULL 60.8 59 94% 30.09 0.0
07 08:40 Calm 10.00 NULL NULL 59 59 100% 30.09 0.0
07 08:20 Calm 10.00 NULL NULL 59 57.2 94% 30.09 0.0
07 08:00 Calm 10.00 NULL NULL 57.2 57.2 100% 30.09 0.0
07 07:40 Calm 10.00 NULL NULL 55.4 55.4 100% 30.09 0.0
07 07:20 Calm 10.00 NULL NULL 53.6 53.6 100% 30.08 0.0
07 07:00 Calm 10.00 NULL NULL 53.6 53.6 100% 30.07 0.0
07 06:40 Calm 10.00 NULL NULL 51.8 51.8 100% 30.07 0.0
07 06:20 Calm 10.00 NULL NULL 51.8 51.8 100% 30.06 0.0
07 06:00 Calm 10.00 NULL NULL 51.8 51.8 100% 30.06 0.0
07 05:40 Calm 9.00 NULL NULL 51.8 51.8 100% 30.06 0.0
07 05:20 Calm 8.00 NULL NULL 51.8 51.8 100% 30.06 0.0
07 05:00 Calm 10.00 NULL NULL 51.8 51.8 100% 30.05 0.0
07 04:40 Calm 10.00 NULL NULL 53.6 53.6 100% 30.05 0.0
07 04:20 Calm 10.00 NULL NULL 53.6 53.6 100% 30.05 0.0
07 04:00 Calm 10.00 NULL NULL 53.6 53.6 100% 30.05 0.0
07 03:40 Calm 10.00 NULL NULL 53.6 53.6 100% 30.05 0.0
07 03:20 Calm 10.00 NULL NULL 53.6 53.6 100% 30.05 0.0
07 03:00 Calm 10.00 NULL NULL 53.6 53.6 100% 30.04 0.0
07 02:40 Calm 10.00 NULL NULL 53.6 53.6 100% 30.05 0.0
07 02:20 Calm 10.00 NULL NULL 53.6 53.6 100% 30.05 0.0
07 02:00 Calm 10.00 NULL NULL 55.4 55.4 100% 30.05 0.0
07 01:40 Calm 10.00 NULL NULL 55.4 55.4 100% 30.05 0.0
07 01:20 Calm 10.00 NULL NULL 55.4 55.4 100% 30.05 0.0
07 01:00 Calm 10.00 NULL NULL 55.4 55.4 100% 30.05 0.0
07 00:40 Calm 10.00 NULL NULL 55.4 55.4 100% 30.05 0.0
07 00:20 Calm 10.00 NULL NULL 55.4 55.4 100% 30.05 0.0
07 00:00 Calm 10.00 NULL NULL 57.2 55.4 94% 30.05 0.0
06 23:40 Calm 10.00 NULL NULL 57.2 57.2 100% 30.05 0.0
06 23:20 Calm 10.00 NULL NULL 57.2 57.2 100% 30.05 0.0
06 23:00 Calm 10.00 NULL NULL 57.2 57.2 100% 30.05 0.0
06 22:40 Calm 10.00 NULL NULL 59 57.2 94% 30.05 0.0
06 22:20 Calm 10.00 NULL NULL 59 57.2 94% 30.05 0.0
06 22:00 Calm 10.00 NULL NULL 59 57.2 94% 30.04 0.0
06 21:40 S 5 10.00 NULL NULL 60.8 57.2 88% 30.04 0.0
06 21:20 S 5 10.00 NULL NULL 62.6 59 88% 30.04 0.0
06 21:00 S 7 10.00 NULL NULL 64.4 59 83% 30.03 0.0
06 20:40 S 5 10.00 NULL NULL 64.4 59 83% 30.03 0.0
06 20:20 S 7 10.00 NULL NULL 66.2 59 78% 30.02 0.0
06 20:00 S 8 10.00 NULL NULL 68 59 73% 30.02 0.0
06 19:40 S 6 10.00 NULL NULL 71.6 59 65% 30.02 0.0
06 19:20 S 7 10.00 NULL NULL 71.6 59 65% 30.02 0.0
06 19:00 S 8 10.00 NULL NULL 73.4 59 61% 30.02 0.0
06 18:40 S 3 10.00 NULL NULL 75.2 57.2 54% 78 30.02 0.0
06 18:20 Calm 10.00 NULL NULL 75.2 57.2 54% 78 30.02 0.0
06 18:00 Calm 10.00 NULL NULL 75.2 57.2 54% 78 30.02 0.0
06 17:40 Calm 10.00 NULL NULL 75.2 57.2 54% 78 30.02 0.0
06 17:20 Calm 10.00 NULL NULL 75.2 57.2 54% 78 30.03 0.0
06 17:00 Calm 10.00 NULL NULL 75.2 57.2 54% 78 30.03 0.0
06 16:40 Calm 10.00 NULL NULL 75.2 57.2 54% 78 30.04 0.0
06 16:20 Calm 10.00 NULL NULL 73.4 55.4 53% 30.04 0.0
06 16:00 Calm 10.00 NULL NULL 73.4 55.4 53% 30.05 0.0
06 15:35 Calm 10.00 NULL NULL 73.4 55.4 53% 30.07 0.0
06 15:20 Calm 10.00 NULL NULL 73.4 55.4 53% 30.07 0.0
06 15:00 Calm 10.00 NULL NULL 73.4 55.4 53% 30.08 0.0
06 14:40 NW 3 10.00 NULL NULL 73.4 55.4 53% 30.09 0.0
06 14:20 NE 3 10.00 NULL NULL 73.4 55.4 53% 30.1 0.0
06 13:55 Calm 10.00 NULL NULL 73.4 53.6 50% 30.1 0.0
06 13:40 Calm 10.00 NULL NULL 71.6 53.6 53% 30.11 0.0
06 13:20 Calm 10.00 NULL NULL 71.6 53.6 53% 30.11 0.0
06 13:00 N 7 10.00 NULL NULL 71.6 51.8 50% 30.12 0.0
06 12:40 NE 6 10.00 NULL NULL 69.8 53.6 57% 30.12 0.0
06 12:20 Calm 10.00 NULL NULL 68 55.4 64% 30.13 0.0
06 12:00 Calm 10.00 NULL NULL 68 57.2 69% 30.14 0.0
06 11:40 Calm 10.00 NULL NULL 68 55.4 64% 30.14 0.0
06 11:20 Calm 10.00 NULL NULL 66.2 57.2 73% 30.14 0.0
06 11:00 Calm 10.00 NULL NULL 66.2 59 78% 30.14 0.0
06 10:35 Calm 10.00 NULL NULL 64.4 59 83% 30.14 0.0
06 10:20 Calm 10.00 NULL NULL 64.4 59 83% 30.14 0.0
06 10:00 Calm 10.00 NULL NULL 62.6 59 88% 30.14 0.0
06 09:40 Calm 10.00 NULL NULL 62.6 59 88% 30.14 0.0
06 09:20 Calm 10.00 NULL NULL 60.8 57.2 88% 30.14 0.0
06 09:00 Calm 10.00 NULL NULL 60.8 57.2 88% 30.14 0.0
06 08:40 Calm 10.00 NULL NULL 59 57.2 94% 30.14 0.0
06 08:20 Calm 10.00 NULL NULL 59 57.2 94% 30.14 0.0
06 08:00 Calm 10.00 NULL NULL 59 57.2 94% 30.13 0.0
06 07:40 Calm 10.00 NULL NULL 57.2 57.2 100% 30.13 0.0
06 07:20 Calm 10.00 NULL NULL 57.2 57.2 100% 30.13 0.0
06 07:00 Calm 10.00 NULL NULL 57.2 57.2 100% 30.12 0.0
06 06:40 Calm 10.00 NULL NULL 57.2 57.2 100% 30.11 0.0
06 06:20 Calm 10.00 NULL NULL 57.2 57.2 100% 30.11 0.0
06 06:00 Calm 10.00 NULL NULL 57.2 57.2 100% 30.11 0.0
06 05:40 Calm 10.00 NULL NULL 57.2 57.2 100% 30.1 0.0
06 05:20 Calm 10.00 NULL NULL 57.2 57.2 100% 30.1 0.0
06 05:00 Calm 10.00 NULL NULL 57.2 57.2 100% 30.1 0.0
06 04:40 Calm 10.00 NULL NULL 57.2 57.2 100% 30.09 0.0
06 04:20 Calm 10.00 NULL NULL 57.2 57.2 100% 30.09 0.0
06 04:00 Calm 10.00 NULL NULL 57.2 57.2 100% 30.08 0.0
06 03:40 Calm 10.00 NULL NULL 57.2 57.2 100% 30.08 0.0
06 03:20 Calm 10.00 NULL NULL 57.2 57.2 100% 30.07 0.0
06 02:55 Calm 10.00 NULL NULL 57.2 55.4 94% 30.07 0.0
06 02:40 Calm 10.00 NULL NULL 57.2 57.2 100% 30.07 0.0
06 02:20 Calm 10.00 NULL NULL 57.2 55.4 94% 30.08 0.0
06 02:00 Calm 10.00 NULL NULL 57.2 57.2 100% 30.07 0.0
06 01:40 Calm 10.00 NULL NULL 59 57.2 94% 30.07 0.0
06 01:20 Calm 10.00 NULL NULL 59 57.2 94% 30.07 0.0
06 01:00 Calm 10.00 NULL NULL 59 55.4 88% 30.07 0.0
06 00:40 Calm 10.00 NULL NULL 59 55.4 88% 30.06 0.0
06 00:20 Calm 10.00 NULL NULL 59 55.4 88% 30.06 0.0
06 00:00 Calm 10.00 NULL NULL 59 55.4 88% 30.05 0.0
05 23:40 Calm 10.00 NULL NULL 59 55.4 88% 30.05 0.0
05 23:15 Calm 10.00 NULL NULL 59 55.4 88% 30.04 0.0
05 23:00 Calm 10.00 NULL NULL 59 55.4 88% 30.04 0.0
05 22:40 Calm 10.00 NULL NULL 59 55.4 88% 30.04 0.0
05 22:20 Calm 10.00 NULL NULL 59 55.4 88% 30.04 0.0
05 22:00 S 5 10.00 NULL NULL 59 55.4 88% 30.02 0.0
05 21:40 S 6 10.00 NULL NULL 59 55.4 88% 30.01 0.0
05 21:20 S 6 10.00 NULL NULL 60.8 55.4 83% 30.01 0.0
05 21:00 Calm 10.00 NULL NULL 60.8 55.4 83% 30.01 0.0
05 20:40 S 8 10.00 NULL NULL 60.8 55.4 83% 30 0.0
05 20:20 S 8 10.00 NULL NULL 62.6 55.4 77% 29.99 0.0
05 20:00 S 7 10.00 NULL NULL 62.6 55.4 77% 29.99 0.0
05 19:40 S 10 10.00 NULL NULL 62.6 55.4 77% 29.98 0.0
05 19:20 S 9 10.00 NULL NULL 62.6 55.4 77% 29.97 0.0
05 18:55 S 8 10.00 NULL NULL 64.4 57.2 78% 29.97 0.0
05 18:40 S 10 10.00 NULL NULL 64.4 57.2 78% 29.97 0.0
05 18:20 S 9 10.00 NULL NULL 64.4 55.4 73% 29.97 0.0
05 18:00 S 7 10.00 NULL NULL 66.2 57.2 73% 29.97 0.0
05 17:40 S 9 10.00 NULL NULL 64.4 55.4 73% 29.97 0.0
05 17:20 S 9 10.00 NULL NULL 66.2 57.2 73% 29.96 0.0
05 17:00 S 8 10.00 NULL NULL 66.2 55.4 68% 29.96 0.0
05 16:40 Calm 10.00 NULL NULL 66.2 55.4 68% 29.96 0.0
05 16:20 SE 5 10.00 NULL NULL 66.2 53.6 64% 29.96 0.0
05 16:00 Calm 10.00 NULL NULL 66.2 53.6 64% 29.97 0.0
05 15:40 S 5 10.00 NULL NULL 66.2 53.6 64% 29.97 0.0
05 15:20 Calm 10.00 NULL NULL 64.4 53.6 68% 29.98 0.0
05 15:00 NE 5 10.00 NULL NULL 66.2 53.6 64% 29.98 0.0
05 14:35 N 6 10.00 NULL NULL 64.4 55.4 73% 29.98 0.0
05 14:20 Calm 10.00 NULL NULL 64.4 55.4 73% 29.99 0.0
05 13:55 NE 3 10.00 NULL NULL 62.6 55.4 77% 30 0.0
05 13:40 N 6 10.00 NULL NULL 62.6 55.4 77% 30 0.0
05 13:20 Calm 10.00 NULL NULL 62.6 55.4 77% 30 0.0
05 13:00 NW 5 10.00 NULL NULL 60.8 55.4 83% 30 0.0
05 12:40 NW 3 10.00 NULL NULL 60.8 57.2 88% 30 0.0
05 12:20 NE 6 10.00 NULL NULL 60.8 57.2 88% 30 0.0
05 12:00 Calm 10.00 NULL NULL 59 57.2 94% 30 0.0
05 11:40 N 5 10.00 NULL NULL 59 57.2 94% 30 0.0
05 11:20 Calm 10.00 NULL NULL 57.2 57.2 100% 29.99 0.0
05 11:00 Calm 10.00 NULL NULL 57.2 57.2 100% 29.99 0.0
05 10:40 Calm 10.00 NULL NULL 57.2 57.2 100% 29.99 0.0
05 10:15 Calm 10.00 NULL NULL 57.2 57.2 100% 29.99 0.0
05 10:00 Calm 10.00 NULL NULL 57.2 57.2 100% 29.99 0.0
05 09:40 Calm 10.00 NULL NULL 57.2 57.2 100% 29.98 0.0
05 09:20 Calm 10.00 NULL NULL 57.2 57.2 100% 29.98 0.0
05 09:00 Calm 10.00 NULL NULL 55.4 55.4 100% 29.98 0.0
05 08:40 Calm 10.00 NULL NULL 55.4 55.4 100% 29.98 0.0
05 08:20 Calm 10.00 NULL NULL 55.4 55.4 100% 29.97 0.0
05 08:00 Calm 10.00 NULL NULL 53.6 53.6 100% 29.96 0.0
05 07:40 Calm 10.00 NULL NULL 53.6 53.6 100% 29.96 0.0
05 07:20 Calm 10.00 NULL NULL 53.6 53.6 100% 29.95 0.0
05 07:00 Calm 10.00 NULL NULL 53.6 53.6 100% 29.94 0.0
05 06:35 Calm 10.00 NULL NULL 53.6 53.6 100% 29.94 0.0
05 06:20 Calm 10.00 NULL NULL 53.6 53.6 100% 29.94 0.0
Date Time (pdt) Wind (mph) Vis. (mi.) Weather Sky Cond. Air Dwpt Max. Min. Relative Humidity Wind Chill (°F) Heat Index (°F) altimeter (in) sea level (mb) 1 hr 3 hr 6 hr
6 hour
Temperature (ºF) Pressure Precipitation (in)